sensor_id;sensor_type;location;lat;lon;timestamp;P1;durP1;ratioP1;P2;durP2;ratioP2
5827;SDS011;42583;50.240;8.444;2023-01-10T00:01:52;477.60;;;10.05;;
5827;SDS011;42583;50.240;8.444;2023-01-10T00:16:55;310.08;;;7.45;;
5827;SDS011;42583;50.240;8.444;2023-01-10T00:31:56;425.35;;;10.23;;
5827;SDS011;42583;50.240;8.444;2023-01-10T00:46:56;299.10;;;7.38;;
5827;SDS011;42583;50.240;8.444;2023-01-10T01:01:57;463.45;;;9.95;;
5827;SDS011;42583;50.240;8.444;2023-01-10T01:16:57;251.15;;;6.68;;
5827;SDS011;42583;50.240;8.444;2023-01-10T01:31:58;410.58;;;8.15;;
5827;SDS011;42583;50.240;8.444;2023-01-10T01:47:00;417.63;;;9.13;;
5827;SDS011;42583;50.240;8.444;2023-01-10T02:02:06;276.67;;;7.25;;
5827;SDS011;42583;50.240;8.444;2023-01-10T02:17:12;417.33;;;7.70;;
5827;SDS011;42583;50.240;8.444;2023-01-10T02:47:36;75.15;;;3.67;;
5827;SDS011;42583;50.240;8.444;2023-01-10T03:17:58;17.23;;;2.72;;
5827;SDS011;42583;50.240;8.444;2023-01-10T03:33:01;40.75;;;2.78;;
5827;SDS011;42583;50.240;8.444;2023-01-10T03:48:02;6.00;;;2.30;;
5827;SDS011;42583;50.240;8.444;2023-01-10T04:03:05;4.78;;;2.25;;
5827;SDS011;42583;50.240;8.444;2023-01-10T04:18:08;14.18;;;2.58;;
5827;SDS011;42583;50.240;8.444;2023-01-10T04:33:09;12.57;;;2.60;;
5827;SDS011;42583;50.240;8.444;2023-01-10T04:48:11;10.00;;;2.35;;
5827;SDS011;42583;50.240;8.444;2023-01-10T05:03:12;7.32;;;2.22;;
5827;SDS011;42583;50.240;8.444;2023-01-10T05:18:12;10.93;;;2.20;;
5827;SDS011;42583;50.240;8.444;2023-01-10T05:33:13;12.18;;;2.80;;
5827;SDS011;42583;50.240;8.444;2023-01-10T05:48:14;10.13;;;3.53;;
5827;SDS011;42583;50.240;8.444;2023-01-10T06:03:16;8.50;;;2.30;;
5827;SDS011;42583;50.240;8.444;2023-01-10T06:18:16;13.50;;;2.90;;
5827;SDS011;42583;50.240;8.444;2023-01-10T06:33:17;10.45;;;2.92;;
5827;SDS011;42583;50.240;8.444;2023-01-10T06:48:17;13.93;;;2.72;;
5827;SDS011;42583;50.240;8.444;2023-01-10T07:03:18;19.35;;;2.50;;
5827;SDS011;42583;50.240;8.444;2023-01-10T07:18:19;10.15;;;2.42;;
5827;SDS011;42583;50.240;8.444;2023-01-10T07:33:20;13.70;;;2.10;;
5827;SDS011;42583;50.240;8.444;2023-01-10T07:48:20;12.95;;;2.10;;
5827;SDS011;42583;50.240;8.444;2023-01-10T08:03:21;10.52;;;2.22;;
5827;SDS011;42583;50.240;8.444;2023-01-10T08:18:23;6.93;;;1.67;;
5827;SDS011;42583;50.240;8.444;2023-01-10T08:33:24;9.10;;;1.70;;
5827;SDS011;42583;50.240;8.444;2023-01-10T08:48:26;10.30;;;1.67;;
5827;SDS011;42583;50.240;8.444;2023-01-10T09:03:26;11.45;;;2.00;;
5827;SDS011;42583;50.240;8.444;2023-01-10T09:18:27;11.43;;;1.90;;
5827;SDS011;42583;50.240;8.444;2023-01-10T09:33:28;6.85;;;1.77;;
5827;SDS011;42583;50.240;8.444;2023-01-10T09:48:36;12.85;;;2.20;;
5827;SDS011;42583;50.240;8.444;2023-01-10T10:03:50;17.15;;;2.35;;
5827;SDS011;42583;50.240;8.444;2023-01-10T10:19:22;14.85;;;2.25;;
5827;SDS011;42583;50.240;8.444;2023-01-10T10:34:38;21.70;;;2.20;;
5827;SDS011;42583;50.240;8.444;2023-01-10T11:05:12;11.23;;;2.10;;
5827;SDS011;42583;50.240;8.444;2023-01-10T11:20:16;16.65;;;2.30;;
5827;SDS011;42583;50.240;8.444;2023-01-10T11:35:27;14.35;;;2.08;;
5827;SDS011;42583;50.240;8.444;2023-01-10T11:50:32;16.00;;;2.33;;
5827;SDS011;42583;50.240;8.444;2023-01-10T12:05:36;13.47;;;2.00;;
5827;SDS011;42583;50.240;8.444;2023-01-10T12:20:41;9.07;;;2.20;;
5827;SDS011;42583;50.240;8.444;2023-01-10T12:35:52;9.63;;;2.20;;
5827;SDS011;42583;50.240;8.444;2023-01-10T12:51:00;16.48;;;2.35;;
5827;SDS011;42583;50.240;8.444;2023-01-10T13:06:05;18.80;;;2.70;;
5827;SDS011;42583;50.240;8.444;2023-01-10T13:21:11;19.55;;;2.30;;
5827;SDS011;42583;50.240;8.444;2023-01-10T13:36:19;15.25;;;2.28;;
5827;SDS011;42583;50.240;8.444;2023-01-10T13:51:26;16.08;;;2.10;;
5827;SDS011;42583;50.240;8.444;2023-01-10T14:21:28;15.68;;;3.58;;
5827;SDS011;42583;50.240;8.444;2023-01-10T14:36:31;21.10;;;3.88;;
5827;SDS011;42583;50.240;8.444;2023-01-10T14:51:37;19.65;;;3.00;;
5827;SDS011;42583;50.240;8.444;2023-01-10T15:06:57;15.35;;;3.22;;
5827;SDS011;42583;50.240;8.444;2023-01-10T15:22:01;20.73;;;3.22;;
5827;SDS011;42583;50.240;8.444;2023-01-10T15:37:03;20.40;;;2.65;;
5827;SDS011;42583;50.240;8.444;2023-01-10T15:52:18;22.20;;;2.70;;
5827;SDS011;42583;50.240;8.444;2023-01-10T16:07:21;23.05;;;3.50;;
5827;SDS011;42583;50.240;8.444;2023-01-10T16:22:23;17.88;;;3.00;;
5827;SDS011;42583;50.240;8.444;2023-01-10T16:37:24;16.25;;;3.30;;
5827;SDS011;42583;50.240;8.444;2023-01-10T16:52:24;20.38;;;2.92;;
5827;SDS011;42583;50.240;8.444;2023-01-10T17:07:25;19.13;;;3.00;;
5827;SDS011;42583;50.240;8.444;2023-01-10T17:22:26;17.70;;;2.90;;
5827;SDS011;42583;50.240;8.444;2023-01-10T17:37:26;12.32;;;3.13;;
5827;SDS011;42583;50.240;8.444;2023-01-10T17:52:27;13.20;;;2.42;;
5827;SDS011;42583;50.240;8.444;2023-01-10T18:07:27;19.83;;;3.05;;
5827;SDS011;42583;50.240;8.444;2023-01-10T18:22:28;13.32;;;2.40;;
5827;SDS011;42583;50.240;8.444;2023-01-10T18:37:47;8.68;;;2.30;;
5827;SDS011;42583;50.240;8.444;2023-01-10T18:52:48;10.40;;;2.13;;
5827;SDS011;42583;50.240;8.444;2023-01-10T19:07:49;5.38;;;1.80;;
5827;SDS011;42583;50.240;8.444;2023-01-10T19:22:49;5.90;;;1.90;;
5827;SDS011;42583;50.240;8.444;2023-01-10T19:37:50;9.18;;;1.80;;
5827;SDS011;42583;50.240;8.444;2023-01-10T19:52:50;9.18;;;1.85;;
5827;SDS011;42583;50.240;8.444;2023-01-10T20:07:51;8.65;;;1.98;;
5827;SDS011;42583;50.240;8.444;2023-01-10T20:22:52;10.98;;;2.00;;
5827;SDS011;42583;50.240;8.444;2023-01-10T20:37:53;51.80;;;3.55;;
5827;SDS011;42583;50.240;8.444;2023-01-10T20:52:54;101.65;;;3.70;;
5827;SDS011;42583;50.240;8.444;2023-01-10T21:07:54;109.15;;;4.35;;
5827;SDS011;42583;50.240;8.444;2023-01-10T21:22:55;38.08;;;2.72;;
5827;SDS011;42583;50.240;8.444;2023-01-10T21:37:55;221.65;;;5.72;;
5827;SDS011;42583;50.240;8.444;2023-01-10T21:52:56;180.43;;;4.88;;
5827;SDS011;42583;50.240;8.444;2023-01-10T22:07:57;314.73;;;7.07;;
5827;SDS011;42583;50.240;8.444;2023-01-10T22:22:57;365.20;;;10.35;;
5827;SDS011;42583;50.240;8.444;2023-01-10T22:37:58;219.90;;;5.93;;
5827;SDS011;42583;50.240;8.444;2023-01-10T22:52:58;377.23;;;7.85;;
5827;SDS011;42583;50.240;8.444;2023-01-10T23:07:58;257.50;;;6.53;;
5827;SDS011;42583;50.240;8.444;2023-01-10T23:22:59;146.20;;;3.63;;
5827;SDS011;42583;50.240;8.444;2023-01-10T23:37:59;177.93;;;4.45;;
5827;SDS011;42583;50.240;8.444;2023-01-10T23:53:00;225.05;;;4.88;;
